createdAt,value
2023-04-17T00:04:43.253Z,99.90
2023-04-17T00:09:47.089Z,99.90
2023-04-17T00:14:49.307Z,99.90
2023-04-17T00:19:51.512Z,99.90
2023-04-17T00:24:54.944Z,99.90
2023-04-17T00:29:57.105Z,99.90
2023-04-17T00:34:59.633Z,99.90
2023-04-17T00:40:03.298Z,99.90
2023-04-17T00:45:06.225Z,99.90
2023-04-17T00:50:10.005Z,99.90
2023-04-17T00:55:15.093Z,99.90
2023-04-17T01:00:18.625Z,99.90
2023-04-17T01:05:20.806Z,99.90
2023-04-17T01:10:24.311Z,99.90
2023-04-17T01:15:26.520Z,99.90
2023-04-17T01:20:31.344Z,99.90
2023-04-17T01:25:35.318Z,99.90
2023-04-17T01:30:37.327Z,99.90
2023-04-17T01:35:39.405Z,99.90
2023-04-17T01:40:42.622Z,99.90
2023-04-17T01:45:44.711Z,99.90
2023-04-17T01:50:47.040Z,99.90
2023-04-17T01:55:50.748Z,99.90
2023-04-17T02:00:52.683Z,99.90
2023-04-17T02:05:55.416Z,99.90
2023-04-17T02:10:58.947Z,99.90
2023-04-17T02:16:01.057Z,99.90
2023-04-17T02:21:03.446Z,99.90
2023-04-17T02:26:07.195Z,99.90
2023-04-17T02:31:09.883Z,99.90
2023-04-17T02:36:11.790Z,99.90
2023-04-17T02:41:15.138Z,99.90
2023-04-17T02:46:17.134Z,99.90
2023-04-17T02:51:19.145Z,99.90
2023-04-17T02:56:22.683Z,99.90
2023-04-17T03:01:24.797Z,99.90
2023-04-17T03:06:27.588Z,99.90
2023-04-17T03:11:31.004Z,99.90
2023-04-17T03:16:33.207Z,99.90
2023-04-17T03:21:35.256Z,99.90
2023-04-17T03:26:38.942Z,99.90
2023-04-17T03:31:41.015Z,99.90
2023-04-17T03:36:43.367Z,99.90
2023-04-17T03:41:47.254Z,99.90
2023-04-17T03:46:49.223Z,99.90
2023-04-17T03:51:51.608Z,99.90
2023-04-17T03:56:55.057Z,99.90
2023-04-17T04:01:57.196Z,99.90
2023-04-17T04:07:01.866Z,99.90
2023-04-17T04:12:05.326Z,99.90
2023-04-17T04:17:07.613Z,99.90
2023-04-17T04:22:10.481Z,99.90
2023-04-17T04:27:18.169Z,99.90
2023-04-17T04:32:20.367Z,99.90
2023-04-17T04:37:29.838Z,99.90
2023-04-17T04:42:33.266Z,99.90
2023-04-17T04:47:35.428Z,99.90
2023-04-17T04:52:37.420Z,99.90
2023-04-17T04:57:40.940Z,99.90
2023-04-17T05:02:43.611Z,99.90
2023-04-17T05:07:46.204Z,99.90
2023-04-17T05:12:49.969Z,99.90
2023-04-17T05:17:52.383Z,99.90
2023-04-17T05:22:54.558Z,99.90
2023-04-17T05:27:57.929Z,99.90
2023-04-17T05:33:01.037Z,99.90
2023-04-17T05:38:04.307Z,99.90
2023-04-17T05:43:12.497Z,99.90
2023-04-17T05:48:14.875Z,99.90
2023-04-17T05:53:17.166Z,99.90
2023-04-17T05:58:24.123Z,99.90
2023-04-17T06:03:27.226Z,99.90
2023-04-17T06:08:29.471Z,99.90
2023-04-17T06:19:28.133Z,99.90
2023-04-17T06:24:44.122Z,99.90
2023-04-17T06:29:47.736Z,99.90
2023-04-17T06:34:59.005Z,99.90
2023-04-17T06:40:01.433Z,99.90
2023-04-17T06:45:05.641Z,99.90
2023-04-17T06:50:09.426Z,99.90
2023-04-17T06:55:12.287Z,99.90
2023-04-17T07:00:17.092Z,99.90
2023-04-17T07:05:19.100Z,99.90
2023-04-17T07:10:21.430Z,99.90
2023-04-17T07:15:25.132Z,99.90
2023-04-17T07:20:27.098Z,99.90
2023-04-17T07:25:29.103Z,99.90
2023-04-17T07:30:32.641Z,99.90
2023-04-17T07:35:34.779Z,99.90
2023-04-17T07:40:37.981Z,99.90
2023-04-17T07:45:42.082Z,99.90
2023-04-17T07:50:44.209Z,99.90
2023-04-17T07:55:46.516Z,99.90
2023-04-17T08:00:52.204Z,99.90
2023-04-17T08:05:54.399Z,99.90
2023-04-17T08:10:56.575Z,99.90
2023-04-17T08:16:01.729Z,99.90
2023-04-17T08:21:04.491Z,99.90
2023-04-17T08:26:07.685Z,99.90
2023-04-17T08:31:11.592Z,99.90
2023-04-17T08:36:13.470Z,99.90
2023-04-17T08:41:22.151Z,99.90
2023-04-17T08:46:28.258Z,99.90
2023-04-17T08:51:31.986Z,99.90
2023-04-17T08:56:34.500Z,99.90
2023-04-17T09:01:38.125Z,99.90
2023-04-17T09:06:55.153Z,99.90
2023-04-17T09:12:12.872Z,99.90
2023-04-17T09:17:18.700Z,99.90
2023-04-17T09:22:22.003Z,99.90
2023-04-17T09:27:25.347Z,99.90
2023-04-17T09:32:30.039Z,99.90
2023-04-17T09:37:50.014Z,99.90
2023-04-17T09:42:57.915Z,99.90
2023-04-17T09:48:01.666Z,99.90
2023-04-17T09:53:05.448Z,99.90
2023-04-17T09:58:09.312Z,99.90
2023-04-17T10:03:18.244Z,99.90
2023-04-17T10:08:21.386Z,99.90
2023-04-17T10:13:30.302Z,99.90
2023-04-17T10:18:34.253Z,99.90
2023-04-17T10:23:37.245Z,99.90
2023-04-17T10:28:49.412Z,99.90
2023-04-17T10:33:54.550Z,99.90
2023-04-17T10:39:14.429Z,99.90
2023-04-17T10:44:16.687Z,99.90
2023-04-17T10:49:23.009Z,99.90
2023-04-17T10:54:25.266Z,99.90
2023-04-17T10:59:30.323Z,99.90
2023-04-17T11:04:35.042Z,99.90
2023-04-17T11:09:37.197Z,99.90
2023-04-17T11:14:43.357Z,99.90
2023-04-17T11:19:47.046Z,99.90
2023-04-17T11:24:52.851Z,99.90
2023-04-17T11:29:55.361Z,99.90
2023-04-17T11:34:59.710Z,99.90
2023-04-17T11:40:09.279Z,99.90
2023-04-17T11:45:12.327Z,99.90
2023-04-17T11:50:18.409Z,99.90
2023-04-17T11:55:21.212Z,99.90
2023-04-17T12:00:27.804Z,99.90
2023-04-17T12:05:33.302Z,99.90
2023-04-17T12:10:40.389Z,99.90
2023-04-17T12:15:42.887Z,99.90
2023-04-17T12:20:47.089Z,99.90
2023-04-17T12:25:49.485Z,99.90
2023-04-17T12:30:52.951Z,99.10
2023-04-17T12:35:56.799Z,99.90
2023-04-17T12:40:59.513Z,96.10
2023-04-17T12:46:02.012Z,93.50
2023-04-17T12:51:06.129Z,96.90
2023-04-17T12:56:09.665Z,97.20
2023-04-17T13:01:11.841Z,99.90
2023-04-17T13:06:17.038Z,99.30
2023-04-17T13:11:19.605Z,96.80
2023-04-17T13:16:22.227Z,99.90
2023-04-17T13:21:26.085Z,99.90
2023-04-17T13:26:28.389Z,99.90
2023-04-17T13:31:30.816Z,99.90
2023-04-17T13:36:34.915Z,99.90
2023-04-17T13:41:38.057Z,99.90
2023-04-17T13:46:40.004Z,99.90
2023-04-17T13:51:43.643Z,99.90
2023-04-17T13:56:46.829Z,99.90
2023-04-17T14:01:49.176Z,99.90
2023-04-17T14:06:52.767Z,99.90
2023-04-17T14:11:54.878Z,99.90
2023-04-17T14:16:57.735Z,99.90
2023-04-17T14:22:01.032Z,99.90
2023-04-17T14:27:03.219Z,99.90
2023-04-17T14:32:05.431Z,99.90
2023-04-17T14:37:09.615Z,99.90
2023-04-17T14:42:11.718Z,99.90
2023-04-17T14:47:13.911Z,99.90
2023-04-17T14:52:17.793Z,99.90
2023-04-17T14:57:19.879Z,99.90
2023-04-17T15:02:22.236Z,99.90
2023-04-17T15:07:25.876Z,99.90
2023-04-17T15:12:29.629Z,99.90
2023-04-17T15:17:31.917Z,99.90
2023-04-17T15:22:35.619Z,99.90
2023-04-17T15:27:37.933Z,99.90
2023-04-17T15:32:41.856Z,99.90
2023-04-17T15:37:45.658Z,99.90
2023-04-17T15:42:47.793Z,99.90
2023-04-17T15:47:50.200Z,99.90
2023-04-17T15:52:53.550Z,99.90
2023-04-17T15:57:56.177Z,99.90
2023-04-17T16:02:58.572Z,99.90
2023-04-17T16:08:03.553Z,99.90
2023-04-17T16:13:05.620Z,99.90
2023-04-17T16:18:08.152Z,99.90
2023-04-17T16:23:11.836Z,99.90
2023-04-17T16:28:14.192Z,99.90
2023-04-17T16:33:16.829Z,99.90
2023-04-17T16:38:20.673Z,99.90
2023-04-17T16:43:22.746Z,99.90
2023-04-17T16:48:25.659Z,99.90
2023-04-17T16:53:29.233Z,99.90
2023-04-17T16:58:31.391Z,99.90
2023-04-17T17:03:33.982Z,99.90
2023-04-17T17:08:37.700Z,99.90
2023-04-17T17:13:40.304Z,99.90
2023-04-17T17:18:42.138Z,99.90
2023-04-17T17:23:45.786Z,99.90
2023-04-17T17:28:51.567Z,99.90
2023-04-17T17:33:55.567Z,99.90
2023-04-17T17:39:00.400Z,99.90
2023-04-17T17:44:02.931Z,99.90
2023-04-17T17:49:05.693Z,99.90
2023-04-17T17:54:10.546Z,99.90
2023-04-17T17:59:13.436Z,99.90
2023-04-17T18:04:18.285Z,99.90
2023-04-17T18:09:22.943Z,99.90
2023-04-17T18:14:26.229Z,99.90
2023-04-17T18:19:28.770Z,99.90
2023-04-17T18:24:33.129Z,99.90
2023-04-17T18:29:37.668Z,99.90
2023-04-17T18:34:40.067Z,99.90
2023-04-17T18:39:44.000Z,99.90
2023-04-17T18:44:47.469Z,99.90
2023-04-17T18:49:54.538Z,99.90
2023-04-17T18:54:58.493Z,99.90
2023-04-17T19:00:05.864Z,99.90
2023-04-17T19:05:09.995Z,99.90
2023-04-17T19:10:15.533Z,99.90
2023-04-17T19:15:19.152Z,99.90
2023-04-17T19:20:25.271Z,99.90
2023-04-17T19:25:29.640Z,99.90
2023-04-17T19:30:32.641Z,99.90
2023-04-17T19:35:36.252Z,99.90
2023-04-17T19:40:40.820Z,99.90
2023-04-17T19:45:45.258Z,99.90
2023-04-17T19:50:48.750Z,99.90
2023-04-17T19:55:53.769Z,99.90
2023-04-17T20:00:56.651Z,99.90
2023-04-17T20:05:59.663Z,99.90
2023-04-17T20:11:05.281Z,99.90
2023-04-17T20:16:08.951Z,99.90
2023-04-17T20:21:12.542Z,99.90
2023-04-17T20:26:16.263Z,99.90
2023-04-17T20:31:19.176Z,99.90
2023-04-17T20:36:21.859Z,99.90
2023-04-17T20:41:25.901Z,99.90
2023-04-17T20:46:29.062Z,99.90
2023-04-17T20:51:32.423Z,99.90
2023-04-17T20:56:36.827Z,99.90
2023-04-17T21:01:38.892Z,99.90
2023-04-17T21:06:41.153Z,99.90
2023-04-17T21:11:44.628Z,99.90
2023-04-17T21:16:46.665Z,99.90
2023-04-17T21:21:49.160Z,99.90
2023-04-17T21:26:54.362Z,99.90
2023-04-17T21:31:57.372Z,99.90
2023-04-17T21:37:02.311Z,99.90
2023-04-17T21:42:06.049Z,99.90
2023-04-17T21:47:08.341Z,99.90
2023-04-17T21:52:10.662Z,99.90
2023-04-17T21:57:14.434Z,99.90
2023-04-17T22:02:17.001Z,99.90
2023-04-17T22:07:21.628Z,99.90
2023-04-17T22:12:27.817Z,99.90
2023-04-17T22:17:29.976Z,99.90
2023-04-17T22:22:34.619Z,99.90
2023-04-17T22:27:38.029Z,99.90
2023-04-17T22:32:40.290Z,99.90
2023-04-17T22:37:42.523Z,99.90
2023-04-17T22:42:46.031Z,99.90
2023-04-17T22:47:48.043Z,99.90
2023-04-17T22:52:50.077Z,99.90
2023-04-17T22:57:54.344Z,99.90
2023-04-17T23:02:56.513Z,99.90
2023-04-17T23:07:59.460Z,99.90
2023-04-17T23:13:03.300Z,99.90
2023-04-17T23:18:05.847Z,99.90
2023-04-17T23:23:07.885Z,99.90
2023-04-17T23:28:11.532Z,99.90
2023-04-17T23:33:13.518Z,99.90
2023-04-17T23:38:16.102Z,99.90
2023-04-17T23:43:19.439Z,99.90
2023-04-17T23:48:21.702Z,99.90
2023-04-17T23:53:23.798Z,99.90
2023-04-17T23:58:27.584Z,99.90
